首页
METAR-TAF:

METAR-TAF

机场 :

臺北松山機場

臺北, 台湾

纬度: 25-04N, 经度: 121-33E, 海拔: 6米

当前天气观测

该预报发布于1小时和13分钟前的20:00 UTC
风速7节,风向
温度 22°C
湿度 78%
气压 1011 hPa
能见度10公里或以上
少量云层高于2000英尺
多云层高于7000英尺

METAR: RCSS 202000Z 08007KT 9999 FEW020 BKN070 22/18 Q1011 NOSIG RMK A2987

时间: 05:13 (21:13 UTC)

预报

该预报发布于4小时和13分钟前的17:00 UTC
预报有效从20日的 18点(UTC)到 21日的 18点(UTC)
风速8节,风向
能见度10公里或以上
少量云层高于1200英尺
多云层高于3200英尺
多云层高于6000英尺

TAF: RCSS 201700Z 2018/2118 10008KT 9999 FEW012 BKN032 BKN060

超过4000个机场的气象观测和天气预报(METAR&TAF报告)。

可查询的气象台以黄色和红色小点在地图上表示。

将鼠标移到小点上方,可查看气象台名称。

然后点击查看天气观测和预报。

如需切换地图:点击带黑十字的绿色按钮放大地图;点击带横线的绿色按钮缩小地图;或者点击绿色箭头查看邻近地区的地图。


METAR-TAF: